createdAt,value
2017-07-25T00:00:56.839Z,99878.69
2017-07-25T00:03:24.258Z,99879.61
2017-07-25T00:05:51.666Z,99874.00
2017-07-25T00:08:19.063Z,99880.20
2017-07-25T00:10:46.489Z,99874.20
2017-07-25T00:13:13.907Z,99874.65
2017-07-25T00:15:41.383Z,99869.79
2017-07-25T00:18:08.793Z,99868.44
2017-07-25T00:20:36.219Z,99864.79
2017-07-25T00:23:03.666Z,99867.75
2017-07-25T00:25:31.043Z,99866.79
2017-07-25T00:27:58.455Z,99866.06
2017-07-25T00:30:25.871Z,99858.69
2017-07-25T00:32:53.273Z,99858.41
2017-07-25T00:35:21.299Z,99853.97
2017-07-25T00:37:48.711Z,99855.23
2017-07-25T00:40:16.119Z,99855.83
2017-07-25T00:42:43.525Z,99856.48
2017-07-25T00:45:10.927Z,99856.03
2017-07-25T00:47:38.341Z,99851.55
2017-07-25T00:50:05.743Z,99849.14
2017-07-25T00:52:33.176Z,99849.45
2017-07-25T00:55:00.579Z,99850.27
2017-07-25T00:57:27.992Z,99846.24
2017-07-25T00:59:55.396Z,99844.59
2017-07-25T01:02:22.855Z,99841.25
2017-07-25T01:04:50.291Z,99842.97
2017-07-25T01:07:17.687Z,99846.45
2017-07-25T01:09:45.130Z,99842.03
2017-07-25T01:12:12.527Z,99843.41
2017-07-25T01:14:39.920Z,99838.31
2017-07-25T01:17:07.363Z,99837.03
2017-07-25T01:19:34.756Z,99836.31
2017-07-25T01:22:02.162Z,99841.07
2017-07-25T01:24:29.556Z,99836.25
2017-07-25T01:26:56.963Z,99843.17
2017-07-25T01:29:24.395Z,99832.98
2017-07-25T01:31:51.795Z,99837.73
2017-07-25T01:34:19.194Z,99837.12
2017-07-25T01:36:46.599Z,99836.13
2017-07-25T01:39:14.003Z,99838.61
2017-07-25T01:41:41.419Z,99828.55
2017-07-25T01:44:08.815Z,99831.48
2017-07-25T01:46:36.219Z,99830.05
2017-07-25T01:49:03.623Z,99832.74
2017-07-25T01:51:31.027Z,99827.51
2017-07-25T01:53:58.654Z,99836.22
2017-07-25T01:56:26.045Z,99834.67
2017-07-25T01:58:53.488Z,99835.41
2017-07-25T02:01:20.892Z,99829.41
2017-07-25T02:03:48.286Z,99824.87
2017-07-25T02:06:15.699Z,99828.11
2017-07-25T02:08:43.091Z,99823.35
2017-07-25T02:11:10.515Z,99824.45
2017-07-25T02:13:37.944Z,99823.94
2017-07-25T02:16:05.335Z,99824.18
2017-07-25T02:18:32.779Z,99820.21
2017-07-25T02:21:00.187Z,99821.22
2017-07-25T02:23:27.614Z,99820.66
2017-07-25T02:25:55.028Z,99823.80
2017-07-25T02:28:22.443Z,99823.42
2017-07-25T02:30:49.896Z,99830.84
2017-07-25T02:33:17.295Z,99821.53
2017-07-25T02:35:44.686Z,99825.05
2017-07-25T02:38:12.114Z,99820.14
2017-07-25T02:40:39.514Z,99826.59
2017-07-25T02:43:06.905Z,99828.45
2017-07-25T02:45:34.343Z,99831.27
2017-07-25T02:48:01.732Z,99824.34
2017-07-25T02:50:29.124Z,99828.44
2017-07-25T02:52:56.539Z,99829.23
2017-07-25T02:55:23.938Z,99824.73
2017-07-25T02:57:51.409Z,99826.71
2017-07-25T03:00:18.809Z,99822.90
2017-07-25T03:02:46.237Z,99825.69
2017-07-25T03:05:13.705Z,99825.87
2017-07-25T03:07:41.138Z,99823.16
2017-07-25T03:10:08.548Z,99826.36
2017-07-25T03:12:35.982Z,99829.59
2017-07-25T03:15:03.374Z,99826.36
2017-07-25T03:17:30.803Z,99828.30
2017-07-25T03:19:58.248Z,99826.05
2017-07-25T03:22:25.661Z,99826.05
2017-07-25T03:24:53.083Z,99826.78
2017-07-25T03:27:20.507Z,99825.27
2017-07-25T03:29:47.927Z,99829.39
2017-07-25T03:32:15.328Z,99828.28
2017-07-25T03:34:42.763Z,99826.61
2017-07-25T03:37:10.167Z,99826.94
2017-07-25T03:39:37.579Z,99829.62
2017-07-25T03:42:05.008Z,99830.18
2017-07-25T03:44:32.427Z,99827.69
2017-07-25T03:46:59.851Z,99819.91
2017-07-25T03:49:27.255Z,99813.14
2017-07-25T03:51:54.684Z,99821.23
2017-07-25T03:54:22.127Z,99814.90
2017-07-25T03:56:49.538Z,99814.12
2017-07-25T03:59:16.963Z,99808.75
2017-07-25T04:01:44.393Z,99813.05
2017-07-25T04:04:11.799Z,99810.09
2017-07-25T04:06:39.237Z,99814.77
2017-07-25T04:09:06.624Z,99807.41
2017-07-25T04:11:34.024Z,99812.67
2017-07-25T04:14:01.448Z,99808.38
2017-07-25T04:16:28.857Z,99810.17
2017-07-25T04:18:56.263Z,99812.52
2017-07-25T04:21:23.659Z,99811.77
2017-07-25T04:23:51.246Z,99805.30
2017-07-25T04:26:18.666Z,99804.78
2017-07-25T04:28:46.073Z,99802.23
2017-07-25T04:31:13.527Z,99797.31
2017-07-25T04:33:40.964Z,99801.63
2017-07-25T04:36:08.404Z,99792.18
2017-07-25T04:38:35.840Z,99796.86
2017-07-25T04:41:03.234Z,99800.94
2017-07-25T04:43:30.643Z,99805.16
2017-07-25T04:45:58.063Z,99801.69
2017-07-25T04:48:25.493Z,99804.11
2017-07-25T04:50:52.938Z,99808.22
2017-07-25T04:53:21.013Z,99804.37
2017-07-25T04:55:48.487Z,99798.80
2017-07-25T04:58:16.092Z,99804.41
2017-07-25T05:00:43.535Z,99800.66
2017-07-25T05:03:10.939Z,99805.79
2017-07-25T05:05:38.373Z,99806.62
2017-07-25T05:08:05.791Z,99806.66
2017-07-25T05:10:33.249Z,99801.73
2017-07-25T05:13:01.279Z,99811.93
2017-07-25T05:15:28.665Z,99806.42
2017-07-25T05:18:12.923Z,99812.45
2017-07-25T05:20:40.315Z,99805.24
2017-07-25T05:23:07.711Z,99807.03
2017-07-25T05:25:35.116Z,99807.03
2017-07-25T05:28:06.606Z,99807.66
2017-07-25T05:30:39.883Z,99807.02
2017-07-25T05:33:07.300Z,99809.47
2017-07-25T05:35:34.695Z,99810.16
2017-07-25T05:38:02.098Z,99801.62
2017-07-25T05:40:29.494Z,99805.14
2017-07-25T05:42:56.907Z,99805.69
2017-07-25T05:45:24.316Z,99807.93
2017-07-25T05:47:55.315Z,99805.28
2017-07-25T05:50:22.716Z,99807.83
2017-07-25T05:52:50.098Z,99805.55
2017-07-25T05:55:17.623Z,99801.52
2017-07-25T05:57:45.062Z,99799.70
2017-07-25T06:00:12.467Z,99802.23
2017-07-25T06:02:39.871Z,99796.84
2017-07-25T06:05:07.313Z,99793.51
2017-07-25T06:07:34.738Z,99800.44
2017-07-25T06:10:02.958Z,99798.19
2017-07-25T06:12:30.922Z,99793.95
2017-07-25T06:14:58.700Z,99793.70
2017-07-25T06:20:05.148Z,99795.33
2017-07-25T06:22:33.015Z,99784.96
2017-07-25T06:25:00.410Z,99789.86
2017-07-25T06:27:27.827Z,99781.97
2017-07-25T06:29:55.226Z,99786.51
2017-07-25T06:32:23.029Z,99782.89
2017-07-25T06:34:50.443Z,99779.23
2017-07-25T06:37:17.949Z,99773.41
2017-07-25T06:39:45.359Z,99773.30
2017-07-25T06:42:12.771Z,99776.78
2017-07-25T06:44:40.192Z,99771.59
2017-07-25T06:47:07.586Z,99757.29
2017-07-25T06:49:35.046Z,99759.91
2017-07-25T06:52:02.502Z,99761.80
2017-07-25T06:54:30.482Z,99764.53
2017-07-25T06:56:57.870Z,99771.04
2017-07-25T06:59:25.276Z,99768.88
2017-07-25T07:01:55.632Z,99773.94
2017-07-25T07:04:23.919Z,99765.34
2017-07-25T07:06:52.035Z,99766.17
2017-07-25T07:09:19.452Z,99762.02
2017-07-25T07:11:46.843Z,99770.14
2017-07-25T07:14:14.236Z,99769.08
2017-07-25T07:16:41.654Z,99766.69
2017-07-25T07:19:09.047Z,99766.45
2017-07-25T07:21:36.458Z,99761.90
2017-07-25T07:24:03.859Z,99758.49
2017-07-25T07:26:31.346Z,99762.42
2017-07-25T07:28:58.757Z,99762.08
2017-07-25T07:31:26.175Z,99766.11
2017-07-25T07:33:53.575Z,99773.41
2017-07-25T07:36:20.970Z,99773.72
2017-07-25T07:38:48.375Z,99766.63
2017-07-25T07:41:15.799Z,99764.73
2017-07-25T07:43:43.227Z,99775.86
2017-07-25T07:46:10.631Z,99778.20
2017-07-25T07:48:38.031Z,99783.23
2017-07-25T07:51:05.437Z,99783.47
2017-07-25T07:53:32.868Z,99780.23
2017-07-25T07:56:00.259Z,99779.89
2017-07-25T07:58:27.684Z,99783.27
2017-07-25T08:00:55.075Z,99786.34
2017-07-25T08:03:22.480Z,99780.95
2017-07-25T08:05:49.895Z,99781.15
2017-07-25T08:08:17.291Z,99782.66
2017-07-25T08:10:44.707Z,99788.52
2017-07-25T08:13:12.177Z,99790.82
2017-07-25T08:15:39.555Z,99788.84
2017-07-25T08:18:07.195Z,99799.33
2017-07-25T08:20:34.631Z,99802.45
2017-07-25T08:23:02.971Z,99800.11
2017-07-25T08:25:30.363Z,99802.23
2017-07-25T08:27:57.755Z,99802.48
2017-07-25T08:30:25.203Z,99806.30
2017-07-25T08:32:52.600Z,99797.16
2017-07-25T08:35:20.783Z,99796.53
2017-07-25T08:37:48.351Z,99800.02
2017-07-25T08:40:15.750Z,99796.89
2017-07-25T08:42:43.183Z,99802.01
2017-07-25T08:45:14.154Z,99797.91
2017-07-25T08:47:41.604Z,99792.29
2017-07-25T08:50:09.023Z,99792.32
2017-07-25T08:52:36.423Z,99789.25
2017-07-25T08:55:03.832Z,99790.91
2017-07-25T08:57:31.235Z,99795.74
2017-07-25T08:59:58.683Z,99793.19
2017-07-25T09:02:26.121Z,99790.81
2017-07-25T09:04:53.522Z,99794.56
2017-07-25T09:07:20.985Z,99792.38
2017-07-25T09:09:48.383Z,99798.56
2017-07-25T09:12:15.800Z,99793.17
2017-07-25T09:14:43.195Z,99790.80
2017-07-25T09:17:10.591Z,99790.95
2017-07-25T09:19:38.000Z,99789.75
2017-07-25T09:22:05.392Z,99787.48
2017-07-25T09:24:32.802Z,99785.52
2017-07-25T09:27:00.195Z,99781.11
2017-07-25T09:29:27.591Z,99782.60
2017-07-25T09:31:54.995Z,99776.92
2017-07-25T09:34:22.395Z,99783.23
2017-07-25T09:36:49.803Z,99780.27
2017-07-25T09:39:17.200Z,99780.79
2017-07-25T09:41:44.615Z,99777.71
2017-07-25T09:44:12.015Z,99777.16
2017-07-25T09:46:39.419Z,99774.63
2017-07-25T09:49:06.815Z,99768.44
2017-07-25T09:51:34.215Z,99767.09
2017-07-25T09:54:01.612Z,99764.40
2017-07-25T09:56:29.018Z,99761.88
2017-07-25T09:58:56.414Z,99764.31
2017-07-25T10:01:23.811Z,99769.58
2017-07-25T10:03:51.223Z,99772.04
2017-07-25T10:06:18.616Z,99766.77
2017-07-25T10:08:46.051Z,99764.48
2017-07-25T10:11:13.451Z,99766.89
2017-07-25T10:13:40.844Z,99766.48
2017-07-25T10:16:08.254Z,99772.02
2017-07-25T10:18:35.666Z,99767.72
2017-07-25T10:21:03.044Z,99760.70
2017-07-25T10:23:30.451Z,99759.07
2017-07-25T10:25:57.842Z,99758.23
2017-07-25T10:28:25.251Z,99754.12
2017-07-25T10:30:52.648Z,99756.18
2017-07-25T10:33:20.047Z,99748.32
2017-07-25T10:35:47.447Z,99753.98
2017-07-25T10:38:14.844Z,99751.05
2017-07-25T10:40:42.246Z,99741.55
2017-07-25T10:43:09.644Z,99739.23
2017-07-25T10:45:37.039Z,99742.84
2017-07-25T10:48:04.439Z,99738.26
2017-07-25T10:50:31.836Z,99734.59
2017-07-25T10:52:59.270Z,99738.23
2017-07-25T10:55:26.711Z,99733.14
2017-07-25T10:57:54.103Z,99725.03
2017-07-25T11:00:22.682Z,99730.28
2017-07-25T11:02:50.066Z,99728.56
2017-07-25T11:05:17.474Z,99719.27
2017-07-25T11:07:44.862Z,99723.05
2017-07-25T11:10:12.263Z,99719.98
2017-07-25T11:12:39.667Z,99719.66
2017-07-25T11:15:07.072Z,99716.05
2017-07-25T11:17:34.493Z,99717.10
2017-07-25T11:20:01.892Z,99718.72
2017-07-25T11:22:29.313Z,99723.44
2017-07-25T11:24:56.703Z,99719.58
2017-07-25T11:27:24.094Z,99712.11
2017-07-25T11:29:51.516Z,99715.59
2017-07-25T11:32:18.899Z,99707.27
2017-07-25T11:34:46.283Z,99709.18
2017-07-25T11:37:13.688Z,99696.05
2017-07-25T11:39:41.175Z,99700.96
2017-07-25T11:42:08.688Z,99699.72
2017-07-25T11:44:36.135Z,99704.94
2017-07-25T11:47:04.854Z,99699.18
2017-07-25T11:49:32.279Z,99702.62
2017-07-25T11:51:59.703Z,99709.41
2017-07-25T11:54:27.160Z,99701.59
2017-07-25T11:56:54.556Z,99700.70
2017-07-25T11:59:21.953Z,99701.27
2017-07-25T12:01:50.235Z,99696.65
2017-07-25T12:04:17.622Z,99700.06
2017-07-25T12:06:45.059Z,99694.92
2017-07-25T12:09:12.490Z,99701.08
2017-07-25T12:11:39.863Z,99699.42
2017-07-25T12:14:07.304Z,99694.09
2017-07-25T12:16:34.733Z,99697.48
2017-07-25T12:19:02.155Z,99701.70
2017-07-25T12:21:44.748Z,99703.47
2017-07-25T12:24:12.212Z,99697.28
2017-07-25T12:26:39.665Z,99700.39
2017-07-25T12:29:07.074Z,99698.08
2017-07-25T12:31:34.497Z,99694.55
2017-07-25T12:34:01.937Z,99700.24
2017-07-25T12:36:29.348Z,99712.80
2017-07-25T12:38:56.748Z,99714.66
2017-07-25T12:41:24.151Z,99715.33
2017-07-25T12:43:51.549Z,99708.74
2017-07-25T12:46:18.954Z,99710.17
2017-07-25T12:48:46.355Z,99705.45
2017-07-25T12:51:13.803Z,99702.61
2017-07-25T12:53:41.214Z,99694.53
2017-07-25T12:56:08.622Z,99684.44
2017-07-25T12:58:36.008Z,99690.22
2017-07-25T13:01:15.247Z,99682.54
2017-07-25T13:03:42.647Z,99689.98
2017-07-25T13:06:10.038Z,99690.92
2017-07-25T13:08:37.452Z,99690.41
2017-07-25T13:11:04.834Z,99688.78
2017-07-25T13:13:32.259Z,99687.56
2017-07-25T13:15:59.660Z,99691.84
2017-07-25T13:18:27.079Z,99699.11
2017-07-25T13:20:54.488Z,99697.62
2017-07-25T13:23:21.920Z,99696.69
2017-07-25T13:25:49.331Z,99699.67
2017-07-25T13:28:16.726Z,99692.95
2017-07-25T13:30:44.163Z,99696.65
2017-07-25T13:33:11.610Z,99697.06
2017-07-25T13:35:38.986Z,99690.06
2017-07-25T13:38:06.391Z,99684.00
2017-07-25T13:40:33.799Z,99691.96
2017-07-25T13:43:01.216Z,99687.81
2017-07-25T13:45:29.596Z,99688.37
2017-07-25T13:47:57.033Z,99694.02
2017-07-25T13:50:24.442Z,99691.35
2017-07-25T13:52:51.827Z,99685.42
2017-07-25T13:55:19.261Z,99693.36
2017-07-25T13:57:46.659Z,99686.22
2017-07-25T14:00:14.063Z,99687.30
2017-07-25T14:02:41.483Z,99689.05
2017-07-25T14:05:08.911Z,99694.14
2017-07-25T14:07:36.323Z,99690.49
2017-07-25T14:10:03.720Z,99688.03
2017-07-25T14:12:31.136Z,99692.62
2017-07-25T14:14:58.552Z,99687.66
2017-07-25T14:17:25.942Z,99687.34
2017-07-25T14:19:53.355Z,99684.55
2017-07-25T14:22:20.752Z,99685.77
2017-07-25T14:24:48.148Z,99687.49
2017-07-25T14:27:15.546Z,99681.17
2017-07-25T14:29:42.951Z,99684.58
2017-07-25T14:32:10.367Z,99685.25
2017-07-25T14:34:37.766Z,99677.58
2017-07-25T14:37:05.164Z,99679.98
2017-07-25T14:39:32.567Z,99672.33
2017-07-25T14:41:59.979Z,99678.50
2017-07-25T14:44:27.394Z,99680.26
2017-07-25T14:46:54.801Z,99671.23
2017-07-25T14:49:22.212Z,99677.44
2017-07-25T14:51:49.615Z,99674.08
2017-07-25T14:54:17.014Z,99673.80
2017-07-25T14:56:44.420Z,99675.03
2017-07-25T14:59:11.827Z,99674.75
2017-07-25T15:01:39.211Z,99673.44
2017-07-25T15:04:06.611Z,99675.73
2017-07-25T15:06:34.011Z,99671.52
2017-07-25T15:09:01.422Z,99671.51
2017-07-25T15:11:28.819Z,99672.47
2017-07-25T15:13:56.216Z,99666.14
2017-07-25T15:16:23.623Z,99662.91
2017-07-25T15:18:51.023Z,99663.31
2017-07-25T15:21:18.431Z,99667.75
2017-07-25T15:23:45.842Z,99665.44
2017-07-25T15:26:13.242Z,99658.17
2017-07-25T15:28:40.654Z,99659.39
2017-07-25T15:31:08.054Z,99660.45
2017-07-25T15:33:35.443Z,99654.20
2017-07-25T15:36:02.856Z,99650.15
2017-07-25T15:38:30.252Z,99644.61
2017-07-25T15:40:57.643Z,99650.88
2017-07-25T15:43:25.039Z,99647.17
2017-07-25T15:45:52.444Z,99641.35
2017-07-25T15:48:19.867Z,99642.47
2017-07-25T15:50:47.266Z,99642.43
2017-07-25T15:53:14.659Z,99642.45
2017-07-25T15:55:42.066Z,99638.41
2017-07-25T15:58:09.454Z,99643.11
2017-07-25T16:00:36.869Z,99635.47
2017-07-25T16:03:04.267Z,99630.77
2017-07-25T16:05:31.663Z,99642.19
2017-07-25T16:07:59.062Z,99625.23
2017-07-25T16:10:26.481Z,99627.80
2017-07-25T16:12:53.899Z,99628.25
2017-07-25T16:15:21.855Z,99622.72
2017-07-25T16:17:49.274Z,99625.27
2017-07-25T16:20:16.683Z,99618.02
2017-07-25T16:22:44.087Z,99622.55
2017-07-25T16:25:11.506Z,99618.90
2017-07-25T16:27:38.899Z,99619.81
2017-07-25T16:30:06.295Z,99608.66
2017-07-25T16:32:37.355Z,99606.11
2017-07-25T16:35:04.760Z,99604.08
2017-07-25T16:37:32.175Z,99608.11
2017-07-25T16:39:59.624Z,99597.04
2017-07-25T16:42:27.015Z,99595.44
2017-07-25T16:44:54.425Z,99595.97
2017-07-25T16:47:21.816Z,99589.34
2017-07-25T16:49:49.227Z,99585.41
2017-07-25T16:52:16.635Z,99586.62
2017-07-25T16:54:44.032Z,99586.52
2017-07-25T16:57:11.487Z,99576.42
2017-07-25T16:59:38.883Z,99577.04
2017-07-25T17:02:06.342Z,99575.30
2017-07-25T17:04:33.742Z,99578.65
2017-07-25T17:07:01.165Z,99575.31
2017-07-25T17:09:28.615Z,99570.44
2017-07-25T17:11:56.015Z,99561.00
2017-07-25T17:14:23.434Z,99570.56
2017-07-25T17:16:50.827Z,99570.84
2017-07-25T17:19:18.278Z,99549.17
2017-07-25T17:21:45.664Z,99550.34
2017-07-25T17:24:13.585Z,99550.63
2017-07-25T17:26:41.002Z,99549.02
2017-07-25T17:29:08.402Z,99545.80
2017-07-25T17:31:35.821Z,99541.61
2017-07-25T17:34:03.215Z,99551.16
2017-07-25T17:36:30.635Z,99542.10
2017-07-25T17:38:59.938Z,99542.69
2017-07-25T17:41:34.218Z,99541.22
2017-07-25T17:44:01.619Z,99549.48
2017-07-25T17:46:29.023Z,99544.92
2017-07-25T17:48:56.514Z,99544.94
2017-07-25T17:51:23.939Z,99549.48
2017-07-25T17:53:51.354Z,99547.88
2017-07-25T17:56:18.767Z,99538.30
2017-07-25T17:58:46.166Z,99540.05
2017-07-25T18:01:13.566Z,99538.59
2017-07-25T18:03:40.970Z,99546.10
2017-07-25T18:06:08.369Z,99556.45
2017-07-25T18:08:35.800Z,99552.02
2017-07-25T18:11:03.187Z,99542.34
2017-07-25T18:13:30.612Z,99552.02
2017-07-25T18:15:58.051Z,99546.77
2017-07-25T18:18:25.490Z,99553.92
2017-07-25T18:20:52.915Z,99547.89
2017-07-25T18:23:20.307Z,99566.17
2017-07-25T18:25:47.716Z,99564.81
2017-07-25T18:28:15.173Z,99553.14
2017-07-25T18:30:42.563Z,99569.14
2017-07-25T18:33:09.995Z,99560.83
2017-07-25T18:35:37.391Z,99559.75
2017-07-25T18:38:04.803Z,99561.64
2017-07-25T18:40:32.214Z,99563.93
2017-07-25T18:42:59.635Z,99562.57
2017-07-25T18:45:27.039Z,99574.70
2017-07-25T18:47:54.489Z,99569.61
2017-07-25T18:50:21.883Z,99577.41
2017-07-25T18:52:49.283Z,99575.69
2017-07-25T18:55:16.689Z,99582.02
2017-07-25T18:57:44.095Z,99583.06
2017-07-25T19:00:11.500Z,99584.92
2017-07-25T19:02:38.902Z,99589.66
2017-07-25T19:05:06.312Z,99584.01
2017-07-25T19:07:33.725Z,99593.31
2017-07-25T19:10:01.131Z,99592.61
2017-07-25T19:12:28.522Z,99594.37
2017-07-25T19:14:55.944Z,99598.97
2017-07-25T19:17:23.349Z,99599.41
2017-07-25T19:19:50.743Z,99598.31
2017-07-25T19:22:18.175Z,99601.41
2017-07-25T19:24:45.570Z,99603.42
2017-07-25T19:27:12.988Z,99601.80
2017-07-25T19:29:40.418Z,99605.84
2017-07-25T19:32:07.799Z,99610.94
2017-07-25T19:34:35.215Z,99609.73
2017-07-25T19:37:02.642Z,99614.06
2017-07-25T19:39:30.035Z,99610.08
2017-07-25T19:41:57.443Z,99613.39
2017-07-25T19:44:24.842Z,99611.80
2017-07-25T19:46:52.265Z,99618.23
2017-07-25T19:49:19.654Z,99619.33
2017-07-25T19:51:47.074Z,99616.91
2017-07-25T19:54:14.486Z,99620.64
2017-07-25T19:56:41.879Z,99621.67
2017-07-25T19:59:09.296Z,99624.77
2017-07-25T20:01:36.696Z,99628.80
2017-07-25T20:04:04.095Z,99625.97
2017-07-25T20:06:31.495Z,99618.16
2017-07-25T20:08:58.907Z,99615.83
2017-07-25T20:11:26.323Z,99622.01
2017-07-25T20:13:53.742Z,99628.88
2017-07-25T20:16:21.154Z,99620.16
2017-07-25T20:18:48.558Z,99635.97
2017-07-25T20:21:16.003Z,99645.15
2017-07-25T20:23:43.439Z,99640.68
2017-07-25T20:26:10.828Z,99647.73
2017-07-25T20:28:38.227Z,99654.17
2017-07-25T20:31:05.675Z,99655.38
2017-07-25T20:33:33.059Z,99652.14
2017-07-25T20:36:00.463Z,99651.20
2017-07-25T20:38:27.875Z,99652.69
2017-07-25T20:40:55.287Z,99657.39
2017-07-25T20:43:22.690Z,99652.14
2017-07-25T20:45:50.106Z,99659.94
2017-07-25T20:48:17.511Z,99661.94
2017-07-25T20:50:50.692Z,99666.55
2017-07-25T20:53:18.090Z,99658.44
2017-07-25T20:55:45.488Z,99656.18
2017-07-25T20:58:12.943Z,99666.08
2017-07-25T21:00:40.350Z,99657.19
2017-07-25T21:03:07.727Z,99660.33
2017-07-25T21:05:35.143Z,99660.56
2017-07-25T21:08:02.540Z,99665.14
2017-07-25T21:10:29.939Z,99665.32
2017-07-25T21:12:57.444Z,99664.77
2017-07-25T21:15:24.828Z,99671.08
2017-07-25T21:17:52.226Z,99671.25
2017-07-25T21:20:19.652Z,99667.69
2017-07-25T21:22:49.000Z,99671.73
2017-07-25T21:25:16.391Z,99675.48
2017-07-25T21:27:43.820Z,99676.69
2017-07-25T21:30:11.219Z,99681.93
2017-07-25T21:32:38.631Z,99677.33
2017-07-25T21:35:06.051Z,99680.56
2017-07-25T21:37:33.480Z,99683.00
2017-07-25T21:40:00.886Z,99680.70
2017-07-25T21:42:28.303Z,99677.30
2017-07-25T21:44:55.713Z,99675.95
2017-07-25T21:47:23.115Z,99680.28
2017-07-25T21:49:50.516Z,99681.08
2017-07-25T21:52:17.924Z,99677.88
2017-07-25T21:54:45.326Z,99682.86
2017-07-25T21:57:12.760Z,99685.01
2017-07-25T21:59:40.168Z,99680.84
2017-07-25T22:02:19.348Z,99690.81
2017-07-25T22:04:58.539Z,99691.83
2017-07-25T22:07:25.955Z,99691.89
2017-07-25T22:09:53.351Z,99684.69
2017-07-25T22:12:20.745Z,99686.56
2017-07-25T22:14:48.176Z,99685.21
2017-07-25T22:17:15.582Z,99690.88
2017-07-25T22:19:42.975Z,99680.55
2017-07-25T22:22:10.386Z,99675.96
2017-07-25T22:24:37.783Z,99676.71
2017-07-25T22:27:05.185Z,99680.61
2017-07-25T22:29:32.622Z,99693.02
2017-07-25T22:32:00.015Z,99688.16
2017-07-25T22:34:27.406Z,99688.05
2017-07-25T22:36:54.839Z,99694.86
2017-07-25T22:39:22.282Z,99692.39
2017-07-25T22:41:49.659Z,99693.58
2017-07-25T22:44:17.091Z,99688.60
2017-07-25T22:46:44.487Z,99687.54
2017-07-25T22:49:11.891Z,99693.44
2017-07-25T22:51:39.311Z,99696.31
2017-07-25T22:54:06.714Z,99699.55
2017-07-25T22:56:34.117Z,99707.18
2017-07-25T22:59:01.528Z,99697.81
2017-07-25T23:01:28.932Z,99703.19
2017-07-25T23:03:56.331Z,99707.67
2017-07-25T23:06:23.746Z,99711.03
2017-07-25T23:08:51.165Z,99712.56
2017-07-25T23:11:18.551Z,99709.89
2017-07-25T23:13:45.952Z,99706.30
2017-07-25T23:16:13.347Z,99702.92
2017-07-25T23:18:40.747Z,99698.59
2017-07-25T23:21:08.323Z,99697.81
2017-07-25T23:23:35.723Z,99699.96
2017-07-25T23:26:03.135Z,99707.87
2017-07-25T23:28:30.547Z,99699.18
2017-07-25T23:30:57.956Z,99706.44
2017-07-25T23:33:25.396Z,99712.77
2017-07-25T23:35:52.859Z,99721.55
2017-07-25T23:38:20.255Z,99722.48
2017-07-25T23:40:47.648Z,99722.05
2017-07-25T23:43:15.055Z,99718.41
2017-07-25T23:45:42.460Z,99720.32
2017-07-25T23:48:09.862Z,99724.88
2017-07-25T23:50:37.278Z,99729.73
2017-07-25T23:53:04.720Z,99725.97
2017-07-25T23:55:32.131Z,99725.56
2017-07-25T23:57:59.548Z,99724.08
